Time;durP1;ratioP1;P1;durP2;ratioP2;P2;SDS_P1;SDS_P2;PMS_P1;PMS_P2;Temp;Humidity;BMP_temperature;BMP_pressure;BME280_temperature;BME280_humidity;BME280_pressure;Samples;Min_cycle;Max_cycle;Signal;HPM_P1;HPM_P2
2023/10/11 00:04:23;;;;;;;139.65;41.63;;;;;;;;;;10486042;28;20039;-82
2023/10/11 00:09:35;;;;;;;85.95;39.55;;;;;;;;;;10487148;28;20127;-80
2023/10/11 00:14:39;;;;;;;112.45;41.67;;;;;;;;;;10485619;28;20127;-84
2023/10/11 00:19:42;;;;;;;165.70;47.42;;;;;;;;;;10485477;28;20036;-81
2023/10/11 00:24:44;;;;;;;86.47;38.63;;;;;;;;;;10485826;28;20064;-84
2023/10/11 00:29:45;;;;;;;74.63;31.10;;;;;;;;;;10485023;28;20040;-81
2023/10/11 00:34:49;;;;;;;90.03;36.83;;;;;;;;;;10471781;28;20605;-83
2023/10/11 00:39:51;;;;;;;82.43;29.35;;;;;;;;;;10467734;28;20482;-81
2023/10/11 00:44:52;;;;;;;102.97;40.83;;;;;;;;;;10484011;28;20135;-80
2023/10/11 00:49:53;;;;;;;102.75;43.13;;;;;;;;;;10484328;28;20044;-82
2023/10/11 00:54:54;;;;;;;60.22;34.80;;;;;;;;;;10485540;28;20063;-81
2023/10/11 00:59:55;;;;;;;98.05;48.13;;;;;;;;;;10485782;28;20472;-82
2023/10/11 01:05:06;;;;;;;99.25;45.22;;;;;;;;;;10466377;28;20388;-83
2023/10/11 01:10:08;;;;;;;70.85;38.40;;;;;;;;;;10487905;28;20048;-81
2023/10/11 01:15:12;;;;;;;86.07;45.03;;;;;;;;;;10491418;28;20448;-82
2023/10/11 01:20:13;;;;;;;73.18;40.45;;;;;;;;;;10479725;28;20024;-83
2023/10/11 01:25:20;;;;;;;57.50;33.65;;;;;;;;;;10493170;28;20077;-81
2023/10/11 01:30:22;;;;;;;79.25;42.53;;;;;;;;;;10493151;28;20036;-81
2023/10/11 01:35:23;;;;;;;75.32;42.40;;;;;;;;;;10485419;28;20025;-80
2023/10/11 01:40:24;;;;;;;86.47;46.05;;;;;;;;;;10461476;28;20054;-81
2023/10/11 01:45:25;;;;;;;81.00;43.83;;;;;;;;;;10491154;28;20084;-82
2023/10/11 01:50:28;;;;;;;63.58;33.75;;;;;;;;;;10491057;28;20051;-80
2023/10/11 01:55:29;;;;;;;86.80;42.65;;;;;;;;;;10491950;28;20028;-81
2023/10/11 02:00:32;;;;;;;74.72;37.63;;;;;;;;;;10491233;28;20028;-82
2023/10/11 02:05:33;;;;;;;84.00;42.25;;;;;;;;;;10491547;28;20042;-82
2023/10/11 02:10:36;;;;;;;79.13;41.83;;;;;;;;;;10504653;22;20057;-81
2023/10/11 02:15:39;;;;;;;72.20;41.90;;;;;;;;;;10488946;28;20032;-85
2023/10/11 02:20:46;;;;;;;69.60;38.40;;;;;;;;;;10471084;28;20024;-85
2023/10/11 02:25:48;;;;;;;104.47;49.65;;;;;;;;;;10484067;28;20079;-81
2023/10/11 02:30:49;;;;;;;50.72;31.30;;;;;;;;;;10424550;28;20045;-82
2023/10/11 02:35:56;;;;;;;116.95;45.67;;;;;;;;;;10469220;22;20057;-81
2023/10/11 02:40:57;;;;;;;48.72;28.77;;;;;;;;;;10487892;28;20029;-84
2023/10/11 02:45:59;;;;;;;67.65;36.25;;;;;;;;;;10481716;28;20024;-84
2023/10/11 02:51:13;;;;;;;66.88;31.55;;;;;;;;;;10471164;28;20097;-81
2023/10/11 02:56:15;;;;;;;67.55;38.45;;;;;;;;;;10479645;28;20083;-81
2023/10/11 03:01:20;;;;;;;57.13;35.10;;;;;;;;;;10501918;22;20525;-81
2023/10/11 03:06:21;;;;;;;71.60;37.65;;;;;;;;;;10507369;22;20064;-81
2023/10/11 03:11:22;;;;;;;57.47;32.70;;;;;;;;;;10486222;28;20534;-81
2023/10/11 03:16:23;;;;;;;68.68;38.65;;;;;;;;;;10481479;28;20115;-81
2023/10/11 03:21:33;;;;;;;53.05;31.23;;;;;;;;;;10480483;28;20075;-80
2023/10/11 03:26:38;;;;;;;48.63;28.75;;;;;;;;;;10488036;28;20036;-81
2023/10/11 03:31:42;;;;;;;49.42;27.48;;;;;;;;;;10460546;28;20049;-84
2023/10/11 03:36:43;;;;;;;46.97;26.75;;;;;;;;;;10487728;28;20086;-81
2023/10/11 03:41:45;;;;;;;43.97;25.33;;;;;;;;;;10478297;28;20119;-79
2023/10/11 03:46:47;;;;;;;40.60;24.05;;;;;;;;;;10483861;28;20068;-81
2023/10/11 03:51:48;;;;;;;39.00;23.88;;;;;;;;;;10482378;28;20040;-80
2023/10/11 03:56:53;;;;;;;39.03;22.40;;;;;;;;;;10487020;28;20468;-80
2023/10/11 04:01:54;;;;;;;22.80;15.95;;;;;;;;;;10474522;28;20060;-84
2023/10/11 04:07:01;;;;;;;26.73;17.60;;;;;;;;;;10477275;28;20059;-83
2023/10/11 04:12:04;;;;;;;30.13;17.90;;;;;;;;;;10485848;28;20472;-82
2023/10/11 04:17:05;;;;;;;33.95;20.77;;;;;;;;;;10474466;28;20028;-83
2023/10/11 04:22:12;;;;;;;34.33;21.15;;;;;;;;;;10479753;28;20128;-82
2023/10/11 04:27:46;;;;;;;33.92;18.60;;;;;;;;;;10471177;28;20024;-81
2023/10/11 04:32:41;;;;;;;33.47;20.38;;;;;;;;;;10475054;28;20055;-84
2023/10/11 04:37:51;;;;;;;33.38;20.60;;;;;;;;;;10484444;28;20024;-84
2023/10/11 04:43:05;;;;;;;34.97;20.65;;;;;;;;;;10471447;28;20032;-82
2023/10/11 04:48:06;;;;;;;37.10;21.40;;;;;;;;;;10485190;28;20500;-81
2023/10/11 04:53:08;;;;;;;32.47;19.20;;;;;;;;;;10484967;28;20071;-82
2023/10/11 04:58:39;;;;;;;39.90;22.35;;;;;;;;;;10485682;28;20021;-81
2023/10/11 05:03:37;;;;;;;41.20;24.40;;;;;;;;;;10484253;28;20467;-83
2023/10/11 05:09:38;;;;;;;42.95;26.67;;;;;;;;;;10483051;28;20060;-88
2023/10/11 05:14:29;;;;;;;52.53;31.08;;;;;;;;;;10465135;28;20540;-81
2023/10/11 05:19:35;;;;;;;57.30;34.85;;;;;;;;;;10485038;28;20043;-81
2023/10/11 05:25:12;;;;;;;49.90;31.17;;;;;;;;;;10484581;28;20051;-82
2023/10/11 05:30:26;;;;;;;50.88;32.33;;;;;;;;;;10473668;28;20036;-81
2023/10/11 05:36:13;;;;;;;59.65;37.42;;;;;;;;;;10483756;28;20025;-81
2023/10/11 05:51:51;;;;;;;60.03;41.40;;;;;;;;;;10483652;28;20049;-83
2023/10/11 05:56:52;;;;;;;60.80;35.20;;;;;;;;;;10490887;28;20035;-81
2023/10/11 06:01:53;;;;;;;56.42;34.58;;;;;;;;;;10492049;28;20035;-81
2023/10/11 06:06:57;;;;;;;53.47;32.55;;;;;;;;;;10489777;28;20542;-79
2023/10/11 06:12:00;;;;;;;51.22;32.17;;;;;;;;;;10490930;28;20029;-81
2023/10/11 06:17:05;;;;;;;39.22;23.38;;;;;;;;;;10490303;28;20028;-81
2023/10/11 06:22:13;;;;;;;30.83;20.88;;;;;;;;;;10490731;28;20043;-80
2023/10/11 06:32:36;;;;;;;36.45;20.23;;;;;;;;;;10490554;28;20596;-82
2023/10/11 06:37:37;;;;;;;35.00;21.95;;;;;;;;;;10489572;28;20050;-82
2023/10/11 06:42:37;;;;;;;34.33;20.48;;;;;;;;;;10489940;28;20135;-84
2023/10/11 06:47:38;;;;;;;47.60;25.92;;;;;;;;;;10489208;28;20043;-81
2023/10/11 06:52:43;;;;;;;30.95;19.60;;;;;;;;;;10489411;28;20492;-81
2023/10/11 06:57:51;;;;;;;25.15;15.82;;;;;;;;;;10489015;28;20032;-81
2023/10/11 07:08:36;;;;;;;21.02;12.27;;;;;;;;;;10460507;28;20056;-83
2023/10/11 07:13:54;;;;;;;22.73;11.85;;;;;;;;;;10489081;28;20036;-81
2023/10/11 07:19:03;;;;;;;24.65;13.68;;;;;;;;;;10487732;28;20758;-81
2023/10/11 07:24:19;;;;;;;25.95;13.90;;;;;;;;;;10487895;28;20125;-81
2023/10/11 07:29:21;;;;;;;24.33;14.98;;;;;;;;;;10487868;28;20039;-81
2023/10/11 07:34:22;;;;;;;30.00;15.90;;;;;;;;;;10487861;28;20028;-81
2023/10/11 07:39:26;;;;;;;29.10;16.00;;;;;;;;;;10487138;28;20077;-81
2023/10/11 07:44:29;;;;;;;22.30;12.77;;;;;;;;;;10486974;28;20082;-81
2023/10/11 07:49:37;;;;;;;20.95;12.27;;;;;;;;;;10486782;28;20051;-81
2023/10/11 07:54:43;;;;;;;25.08;12.32;;;;;;;;;;10487174;28;20059;-81
2023/10/11 07:59:47;;;;;;;20.67;11.52;;;;;;;;;;10487054;28;20020;-81
2023/10/11 08:04:48;;;;;;;19.75;11.90;;;;;;;;;;10486441;28;20021;-80
2023/10/11 08:09:53;;;;;;;27.17;12.77;;;;;;;;;;10484817;28;20485;-84
2023/10/11 08:14:56;;;;;;;20.10;12.68;;;;;;;;;;10485974;28;20028;-82
2023/10/11 08:19:57;;;;;;;21.10;11.88;;;;;;;;;;10485483;28;20086;-81
2023/10/11 08:24:59;;;;;;;21.10;10.63;;;;;;;;;;10486537;28;20119;-80
2023/10/11 08:30:09;;;;;;;26.25;11.55;;;;;;;;;;10485847;28;20043;-81
2023/10/11 08:35:26;;;;;;;25.50;12.18;;;;;;;;;;10485910;28;20443;-82
2023/10/11 08:40:34;;;;;;;21.02;9.80;;;;;;;;;;10485383;28;20032;-81
2023/10/11 08:45:48;;;;;;;16.13;9.10;;;;;;;;;;10485949;28;20483;-81
2023/10/11 08:50:53;;;;;;;15.50;8.27;;;;;;;;;;10484621;28;20089;-81
2023/10/11 08:55:56;;;;;;;15.45;8.45;;;;;;;;;;10485545;28;20035;-82
2023/10/11 09:00:58;;;;;;;21.50;9.23;;;;;;;;;;10485112;28;20583;-81
2023/10/11 09:05:59;;;;;;;16.83;7.85;;;;;;;;;;10483882;28;20468;-81
2023/10/11 09:11:14;;;;;;;18.33;7.43;;;;;;;;;;10485019;28;20043;-81
2023/10/11 09:16:36;;;;;;;19.13;8.77;;;;;;;;;;10466768;28;20032;-81
2023/10/11 09:21:38;;;;;;;16.30;7.95;;;;;;;;;;10484496;28;20024;-83
2023/10/11 09:26:39;;;;;;;16.98;7.85;;;;;;;;;;10484920;28;20036;-82
2023/10/11 09:31:57;;;;;;;11.15;5.05;;;;;;;;;;10491495;28;20476;-84
2023/10/11 09:37:00;;;;;;;13.40;5.97;;;;;;;;;;10492561;28;20025;-83
2023/10/11 09:42:04;;;;;;;11.13;5.70;;;;;;;;;;10493211;28;20021;-82
2023/10/11 09:47:05;;;;;;;13.65;5.63;;;;;;;;;;10492002;28;20503;-81
2023/10/11 09:52:07;;;;;;;11.43;5.68;;;;;;;;;;10491876;28;20508;-81
2023/10/11 09:57:15;;;;;;;10.63;5.20;;;;;;;;;;10492082;28;20036;-81
2023/10/11 10:02:44;;;;;;;11.40;4.88;;;;;;;;;;10491596;28;20074;-81
2023/10/11 10:07:45;;;;;;;11.73;4.80;;;;;;;;;;10486455;28;20052;-81
2023/10/11 10:12:55;;;;;;;14.90;5.45;;;;;;;;;;10491403;28;20483;-81
2023/10/11 10:17:56;;;;;;;16.60;4.65;;;;;;;;;;10491129;28;20020;-83
2023/10/11 10:23:20;;;;;;;13.75;5.30;;;;;;;;;;10490601;28;20496;-82
2023/10/11 10:28:36;;;;;;;10.48;4.55;;;;;;;;;;10478650;28;20107;-84
2023/10/11 10:33:38;;;;;;;10.73;4.90;;;;;;;;;;10490925;28;20079;-82
2023/10/11 10:39:01;;;;;;;15.98;5.25;;;;;;;;;;10490230;28;20104;-81
2023/10/11 10:44:18;;;;;;;13.30;5.15;;;;;;;;;;10490105;28;20032;-84
2023/10/11 10:49:20;;;;;;;8.95;4.68;;;;;;;;;;10489613;28;20480;-81
2023/10/11 10:54:23;;;;;;;11.52;4.82;;;;;;;;;;10490286;28;20507;-85
2023/10/11 10:59:31;;;;;;;14.23;4.70;;;;;;;;;;10489844;28;20974;-82
2023/10/11 11:04:32;;;;;;;11.90;4.63;;;;;;;;;;10489244;28;20682;-82
2023/10/11 11:09:33;;;;;;;12.18;4.45;;;;;;;;;;10487785;28;20488;-82
2023/10/11 11:14:34;;;;;;;11.13;4.45;;;;;;;;;;10488440;28;20017;-81
2023/10/11 11:19:35;;;;;;;12.50;4.78;;;;;;;;;;10489035;28;20214;-82
2023/10/11 11:24:43;;;;;;;18.13;4.75;;;;;;;;;;10489009;28;20029;-82
2023/10/11 11:29:49;;;;;;;15.60;4.78;;;;;;;;;;10488341;28;20037;-82
2023/10/11 11:35:10;;;;;;;9.95;4.70;;;;;;;;;;10476080;28;20024;-82
2023/10/11 11:40:24;;;;;;;9.60;5.05;;;;;;;;;;10487965;28;20024;-84
2023/10/11 11:45:28;;;;;;;10.23;4.30;;;;;;;;;;10487561;28;20031;-81
2023/10/11 11:50:33;;;;;;;11.50;4.40;;;;;;;;;;10486978;28;20434;-81
2023/10/11 11:55:35;;;;;;;10.23;4.45;;;;;;;;;;10488456;28;20102;-83
2023/10/11 12:00:45;;;;;;;11.77;4.30;;;;;;;;;;10486505;28;20412;-85
2023/10/11 12:05:47;;;;;;;13.82;4.78;;;;;;;;;;10486628;28;20032;-85
2023/10/11 12:10:49;;;;;;;17.92;5.20;;;;;;;;;;10485442;28;20679;-81
2023/10/11 12:15:54;;;;;;;13.18;4.95;;;;;;;;;;10487313;28;20024;-82
2023/10/11 12:20:55;;;;;;;12.35;4.18;;;;;;;;;;10486610;28;20039;-82
2023/10/11 12:25:56;;;;;;;14.70;4.90;;;;;;;;;;10486140;28;20051;-82
2023/10/11 12:31:00;;;;;;;10.90;4.40;;;;;;;;;;10486369;28;20036;-82
2023/10/11 12:36:05;;;;;;;10.52;4.53;;;;;;;;;;10480284;28;20502;-82
2023/10/11 12:41:20;;;;;;;12.52;4.65;;;;;;;;;;10431398;22;20058;-83
2023/10/11 12:46:21;;;;;;;11.45;4.78;;;;;;;;;;10368454;28;20024;-82
2023/10/11 12:51:23;;;;;;;15.60;4.65;;;;;;;;;;10394135;28;20041;-83
2023/10/11 12:56:26;;;;;;;11.38;4.30;;;;;;;;;;10387103;28;20028;-84
2023/10/11 13:01:36;;;;;;;10.60;4.47;;;;;;;;;;10401177;28;20480;-84
2023/10/11 13:06:38;;;;;;;8.93;3.90;;;;;;;;;;10370862;28;20030;-83
2023/10/11 13:11:44;;;;;;;10.90;4.00;;;;;;;;;;10370962;28;20115;-83
2023/10/11 13:16:47;;;;;;;9.35;3.90;;;;;;;;;;10351646;28;20374;-82
2023/10/11 13:21:49;;;;;;;12.20;4.32;;;;;;;;;;10385359;28;20036;-83
2023/10/11 13:26:58;;;;;;;9.57;4.20;;;;;;;;;;10361903;28;20038;-82
2023/10/11 13:31:59;;;;;;;9.60;3.95;;;;;;;;;;10370752;28;20779;-82
2023/10/11 13:37:00;;;;;;;8.75;4.07;;;;;;;;;;10348723;28;20034;-84
2023/10/11 13:42:09;;;;;;;9.75;4.32;;;;;;;;;;10348024;28;20057;-84
2023/10/11 13:47:10;;;;;;;11.57;5.03;;;;;;;;;;10373743;28;20109;-81
2023/10/11 13:52:12;;;;;;;10.43;4.55;;;;;;;;;;10372261;28;20038;-81
2023/10/11 13:57:18;;;;;;;9.85;4.38;;;;;;;;;;10372310;28;20030;-82
2023/10/11 14:12:34;;;;;;;13.73;4.80;;;;;;;;;;10361685;28;20053;-82
2023/10/11 14:17:38;;;;;;;10.10;4.38;;;;;;;;;;10379381;28;20684;-82
2023/10/11 14:22:39;;;;;;;13.20;4.38;;;;;;;;;;10376889;28;20116;-81
2023/10/11 14:27:41;;;;;;;11.70;4.25;;;;;;;;;;10367284;28;20038;-82
2023/10/11 14:32:45;;;;;;;11.38;4.50;;;;;;;;;;10368101;28;20204;-85
2023/10/11 14:37:46;;;;;;;8.60;4.20;;;;;;;;;;10366765;28;20034;-83
2023/10/11 14:42:48;;;;;;;11.57;4.22;;;;;;;;;;10369795;28;20053;-83
2023/10/11 14:47:50;;;;;;;8.93;4.05;;;;;;;;;;10372617;28;20529;-82
2023/10/11 14:52:51;;;;;;;10.50;4.30;;;;;;;;;;10367677;28;20061;-83
2023/10/11 14:57:59;;;;;;;14.68;5.50;;;;;;;;;;10377823;28;20040;-82
2023/10/11 15:03:06;;;;;;;12.55;4.90;;;;;;;;;;10366807;28;20611;-82
2023/10/11 15:08:07;;;;;;;10.88;4.65;;;;;;;;;;10367336;28;20728;-82
2023/10/11 15:13:09;;;;;;;9.65;5.18;;;;;;;;;;10367169;28;20041;-81
2023/10/11 15:18:12;;;;;;;13.88;4.70;;;;;;;;;;10371599;28;20048;-81
2023/10/11 15:23:12;;;;;;;13.70;5.25;;;;;;;;;;10365293;28;20026;-81
2023/10/11 15:28:14;;;;;;;15.48;5.57;;;;;;;;;;10364009;28;20033;-81
2023/10/11 15:33:17;;;;;;;11.38;4.95;;;;;;;;;;10365021;28;20537;-81
2023/10/11 15:38:19;;;;;;;11.80;5.75;;;;;;;;;;10363088;28;20778;-83
2023/10/11 15:43:20;;;;;;;12.60;5.53;;;;;;;;;;10364488;28;20018;-83
2023/10/11 15:48:22;;;;;;;19.48;6.50;;;;;;;;;;10364684;28;20026;-84
2023/10/11 15:53:23;;;;;;;12.25;5.38;;;;;;;;;;10364470;28;20100;-81
2023/10/11 15:58:24;;;;;;;15.05;5.72;;;;;;;;;;10363583;28;20432;-81
2023/10/11 16:03:25;;;;;;;15.02;5.90;;;;;;;;;;10364012;28;20037;-81
2023/10/11 16:08:27;;;;;;;18.63;7.35;;;;;;;;;;10363109;28;20646;-82
2023/10/11 16:13:28;;;;;;;22.55;9.45;;;;;;;;;;10363150;28;20065;-83
2023/10/11 16:18:29;;;;;;;15.43;6.50;;;;;;;;;;10362782;28;20022;-81
2023/10/11 16:23:31;;;;;;;12.57;5.25;;;;;;;;;;10362928;28;20040;-84
2023/10/11 16:28:32;;;;;;;19.92;7.28;;;;;;;;;;10362699;28;20033;-82
2023/10/11 16:33:33;;;;;;;18.42;7.70;;;;;;;;;;10365392;28;20389;-84
2023/10/11 16:38:34;;;;;;;20.45;9.77;;;;;;;;;;10344559;28;20136;-80
2023/10/11 16:43:37;;;;;;;24.27;10.45;;;;;;;;;;10371064;28;20057;-82
2023/10/11 16:48:38;;;;;;;17.50;7.55;;;;;;;;;;10361328;28;20052;-82
2023/10/11 16:53:44;;;;;;;15.65;7.63;;;;;;;;;;10365365;28;20393;-82
2023/10/11 16:58:47;;;;;;;20.60;9.95;;;;;;;;;;10365960;28;20029;-81
2023/10/11 17:03:48;;;;;;;26.10;8.63;;;;;;;;;;10362943;28;20037;-84
2023/10/11 17:08:49;;;;;;;21.13;9.85;;;;;;;;;;10361163;28;20053;-81
2023/10/11 17:13:50;;;;;;;17.95;8.48;;;;;;;;;;10370755;28;20753;-83
2023/10/11 17:18:54;;;;;;;23.67;9.50;;;;;;;;;;10349541;28;20030;-81
2023/10/11 17:24:05;;;;;;;17.15;7.65;;;;;;;;;;10361101;28;20080;-81
2023/10/11 17:29:08;;;;;;;15.00;6.97;;;;;;;;;;10364797;28;20091;-81
2023/10/11 17:34:09;;;;;;;17.75;7.55;;;;;;;;;;10360835;28;20473;-83
2023/10/11 17:39:11;;;;;;;17.80;7.15;;;;;;;;;;10351000;28;20084;-81
2023/10/11 17:44:12;;;;;;;18.40;7.88;;;;;;;;;;10347955;28;20525;-80
2023/10/11 17:49:14;;;;;;;17.33;8.07;;;;;;;;;;10363237;28;20486;-78
2023/10/11 17:54:15;;;;;;;18.55;8.20;;;;;;;;;;10368899;28;20022;-83
2023/10/11 17:59:17;;;;;;;22.65;9.13;;;;;;;;;;10368619;28;20022;-81
2023/10/11 18:04:19;;;;;;;20.55;9.98;;;;;;;;;;10368947;28;20769;-81
2023/10/11 18:09:20;;;;;;;49.63;22.05;;;;;;;;;;10370799;28;20111;-81
2023/10/11 18:14:22;;;;;;;55.00;24.60;;;;;;;;;;10367095;28;20547;-83
2023/10/11 18:19:24;;;;;;;41.85;19.20;;;;;;;;;;10392740;28;20060;-82
2023/10/11 18:24:25;;;;;;;35.80;15.68;;;;;;;;;;10384486;28;20162;-84
2023/10/11 18:29:27;;;;;;;68.03;29.85;;;;;;;;;;10379286;28;20064;-86
2023/10/11 18:34:28;;;;;;;67.18;29.40;;;;;;;;;;10368150;28;20116;-79
2023/10/11 18:39:29;;;;;;;57.00;28.80;;;;;;;;;;10364043;28;20464;-84
2023/10/11 18:44:30;;;;;;;41.92;18.85;;;;;;;;;;10372838;28;20022;-80
2023/10/11 18:49:31;;;;;;;29.52;13.82;;;;;;;;;;10366533;28;20033;-79
2023/10/11 18:54:32;;;;;;;33.65;15.98;;;;;;;;;;10386975;28;20026;-79
2023/10/11 18:59:34;;;;;;;38.75;18.40;;;;;;;;;;10375531;28;20092;-81
2023/10/11 19:04:42;;;;;;;28.20;13.82;;;;;;;;;;10371727;28;20033;-83
2023/10/11 19:09:43;;;;;;;26.27;11.90;;;;;;;;;;10370517;28;20509;-81
2023/10/11 19:14:44;;;;;;;22.92;11.25;;;;;;;;;;10368834;28;20133;-82
2023/10/11 19:19:51;;;;;;;26.00;12.38;;;;;;;;;;10378382;28;20090;-83
2023/10/11 19:24:54;;;;;;;23.05;11.63;;;;;;;;;;10371529;28;20076;-83
2023/10/11 19:29:56;;;;;;;24.95;12.43;;;;;;;;;;10358938;28;20393;-82
2023/10/11 19:34:59;;;;;;;21.33;11.73;;;;;;;;;;10351251;28;20034;-81
2023/10/11 19:40:15;;;;;;;25.75;11.25;;;;;;;;;;10380804;28;20551;-81
2023/10/11 19:45:17;;;;;;;25.10;11.23;;;;;;;;;;10367525;28;20041;-81
2023/10/11 19:50:19;;;;;;;21.40;10.95;;;;;;;;;;10370765;28;20064;-81
2023/10/11 19:55:23;;;;;;;20.50;10.82;;;;;;;;;;10369264;28;20029;-80
2023/10/11 20:00:25;;;;;;;18.98;10.93;;;;;;;;;;10371150;28;20049;-81
2023/10/11 20:05:26;;;;;;;20.42;10.80;;;;;;;;;;10358740;28;20037;-80
2023/10/11 20:10:27;;;;;;;21.20;10.82;;;;;;;;;;10367356;28;20040;-80
2023/10/11 20:15:29;;;;;;;19.50;12.05;;;;;;;;;;10365524;28;20038;-81
2023/10/11 20:20:36;;;;;;;21.30;10.40;;;;;;;;;;10370107;28;20018;-80
2023/10/11 20:25:39;;;;;;;20.77;10.57;;;;;;;;;;10368383;28;20026;-81
2023/10/11 20:30:40;;;;;;;18.60;10.18;;;;;;;;;;10362714;28;20073;-79
2023/10/11 20:35:42;;;;;;;20.50;9.55;;;;;;;;;;10371319;28;20460;-81
2023/10/11 20:40:43;;;;;;;15.32;9.18;;;;;;;;;;10382257;28;20447;-80
2023/10/11 20:45:44;;;;;;;19.83;9.88;;;;;;;;;;10368683;28;20026;-81
2023/10/11 20:50:48;;;;;;;20.85;11.43;;;;;;;;;;10388274;28;20073;-82
2023/10/11 20:55:58;;;;;;;22.02;10.55;;;;;;;;;;10364766;28;20045;-80
2023/10/11 21:00:59;;;;;;;20.33;9.85;;;;;;;;;;10362908;28;20509;-81
2023/10/11 21:06:00;;;;;;;21.58;10.63;;;;;;;;;;10364513;28;20490;-80
2023/10/11 21:11:03;;;;;;;19.60;10.25;;;;;;;;;;10362030;28;20044;-82
2023/10/11 21:16:05;;;;;;;21.98;10.25;;;;;;;;;;10361900;28;20100;-80
2023/10/11 21:21:16;;;;;;;15.52;9.20;;;;;;;;;;10362962;28;20233;-81
2023/10/11 21:26:21;;;;;;;23.17;10.20;;;;;;;;;;10349959;28;20025;-80
2023/10/11 21:31:22;;;;;;;22.17;11.10;;;;;;;;;;10369458;28;20042;-82
2023/10/11 21:36:23;;;;;;;19.10;10.13;;;;;;;;;;10376448;28;20143;-79
2023/10/11 21:41:24;;;;;;;17.67;10.50;;;;;;;;;;10378233;28;20913;-81
2023/10/11 21:46:25;;;;;;;19.90;10.48;;;;;;;;;;10373143;28;20030;-80
2023/10/11 21:51:26;;;;;;;20.10;10.73;;;;;;;;;;10369923;28;20029;-80
2023/10/11 21:56:28;;;;;;;29.15;11.25;;;;;;;;;;10377847;28;20337;-80
2023/10/11 22:01:31;;;;;;;24.90;13.45;;;;;;;;;;10368856;28;20037;-80
2023/10/11 22:06:32;;;;;;;28.25;16.45;;;;;;;;;;10487298;22;20059;-80
2023/10/11 22:11:33;;;;;;;22.25;11.27;;;;;;;;;;10491218;28;20472;-80
2023/10/11 22:16:37;;;;;;;19.15;9.10;;;;;;;;;;10488146;28;20116;-81
2023/10/11 22:21:39;;;;;;;17.08;9.35;;;;;;;;;;10490695;28;20087;-80
2023/10/11 22:26:43;;;;;;;21.08;9.60;;;;;;;;;;10485266;28;20103;-80
2023/10/11 22:31:45;;;;;;;16.20;8.90;;;;;;;;;;10490745;28;20054;-80
2023/10/11 22:36:48;;;;;;;20.42;8.98;;;;;;;;;;10486190;28;20025;-81
2023/10/11 22:41:51;;;;;;;21.20;10.45;;;;;;;;;;10477582;28;20119;-81
2023/10/11 22:46:52;;;;;;;20.83;11.15;;;;;;;;;;10490148;28;20115;-80
2023/10/11 22:51:54;;;;;;;22.45;11.60;;;;;;;;;;10478264;28;20480;-80
2023/10/11 22:56:57;;;;;;;23.85;10.90;;;;;;;;;;10489519;28;20078;-80
2023/10/11 23:02:03;;;;;;;20.20;11.38;;;;;;;;;;10471897;28;20055;-80
2023/10/11 23:07:04;;;;;;;24.90;13.60;;;;;;;;;;10479521;28;20114;-80
2023/10/11 23:12:09;;;;;;;21.80;12.40;;;;;;;;;;10488741;28;20071;-83
2023/10/11 23:17:14;;;;;;;19.60;11.53;;;;;;;;;;10489302;28;20116;-81
2023/10/11 23:22:21;;;;;;;28.25;13.35;;;;;;;;;;10483558;28;20039;-80
2023/10/11 23:27:28;;;;;;;28.83;15.80;;;;;;;;;;10488179;28;20426;-81
2023/10/11 23:32:29;;;;;;;32.42;19.10;;;;;;;;;;10488139;28;20040;-80
2023/10/11 23:37:30;;;;;;;33.40;21.05;;;;;;;;;;10487064;28;20032;-80
2023/10/11 23:42:33;;;;;;;32.78;20.95;;;;;;;;;;10484494;28;20476;-79
2023/10/11 23:47:45;;;;;;;44.95;26.95;;;;;;;;;;10454445;28;20036;-80
2023/10/11 23:53:01;;;;;;;39.53;24.15;;;;;;;;;;10463558;28;20082;-79
2023/10/11 23:58:12;;;;;;;40.40;24.65;;;;;;;;;;10470586;28;20067;-82
